Time;durP1;ratioP1;P1;durP2;ratioP2;P2;SDS_P1;SDS_P2;PMS_P1;PMS_P2;Temp;Humidity;BMP_temperature;BMP_pressure;BME280_temperature;BME280_humidity;BME280_pressure;Samples;Min_cycle;Max_cycle;Signal;HPM_P1;HPM_P2
2022/11/13 00:00:33;;;;;;;78.87;23.63;;;8.30;99.90;;;;;;5083931;28;20215;-85
2022/11/13 00:03:00;;;;;;;76.57;20.90;;;8.20;99.90;;;;;;5084219;28;20629;-85
2022/11/13 00:05:25;;;;;;;76.45;21.63;;;8.20;99.90;;;;;;5082916;28;20167;-85
2022/11/13 00:07:51;;;;;;;77.90;27.33;;;8.20;99.90;;;;;;5082957;28;20159;-85
2022/11/13 00:10:17;;;;;;;81.57;27.40;;;8.20;99.90;;;;;;5080268;28;20237;-84
2022/11/13 00:12:42;;;;;;;82.57;31.07;;;8.20;99.90;;;;;;5079340;28;20191;-84
2022/11/13 00:15:09;;;;;;;82.90;34.50;;;8.20;99.90;;;;;;5079130;28;20160;-84
2022/11/13 00:17:34;;;;;;;79.50;33.03;;;8.20;99.90;;;;;;5083985;28;20633;-85
2022/11/13 00:20:00;;;;;;;82.00;34.83;;;8.10;99.90;;;;;;5084714;28;20195;-85
2022/11/13 00:22:25;;;;;;;81.77;35.07;;;8.10;99.90;;;;;;5084132;28;20160;-85
2022/11/13 00:24:54;;;;;;;80.80;32.50;;;8.00;99.90;;;;;;5085480;28;20183;-85
2022/11/13 00:27:20;;;;;;;79.15;31.40;;;8.00;99.90;;;;;;5084089;28;20175;-85
2022/11/13 00:29:45;;;;;;;80.17;32.67;;;7.90;99.90;;;;;;5084555;28;20278;-85
2022/11/13 00:32:11;;;;;;;81.00;34.80;;;7.90;99.90;;;;;;5084965;28;20187;-85
2022/11/13 00:34:36;;;;;;;83.40;33.60;;;7.90;99.90;;;;;;5085004;28;20168;-85
2022/11/13 00:37:02;;;;;;;79.63;33.73;;;7.80;99.90;;;;;;5082244;28;20168;-86
2022/11/13 00:39:28;;;;;;;80.23;32.40;;;7.80;99.90;;;;;;5085157;28;20195;-85
2022/11/13 00:41:53;;;;;;;81.37;32.57;;;7.80;99.90;;;;;;5083061;28;20641;-85
2022/11/13 00:44:19;;;;;;;78.60;31.00;;;7.70;99.90;;;;;;5082420;28;20171;-85
2022/11/13 00:46:45;;;;;;;81.00;34.37;;;7.60;99.90;;;;;;5083335;28;20184;-85
2022/11/13 00:49:11;;;;;;;82.60;36.43;;;7.60;99.90;;;;;;5082691;28;20602;-85
2022/11/13 00:51:37;;;;;;;82.53;29.80;;;7.60;99.90;;;;;;5082975;28;20273;-85
2022/11/13 00:54:03;;;;;;;80.70;34.07;;;7.60;99.90;;;;;;5082632;28;20167;-85
2022/11/13 00:56:29;;;;;;;78.97;30.53;;;7.50;99.90;;;;;;5083729;28;20168;-84
2022/11/13 00:58:54;;;;;;;79.97;32.17;;;7.50;99.90;;;;;;5083077;28;20402;-85
2022/11/13 01:01:20;;;;;;;78.57;29.70;;;7.50;99.90;;;;;;5082733;28;20167;-85
2022/11/13 01:03:46;;;;;;;96.67;31.20;;;7.40;99.90;;;;;;5084004;28;20168;-85
2022/11/13 01:06:21;;;;;;;86.03;32.70;;;7.30;99.90;;;;;;5084256;28;20217;-85
2022/11/13 01:08:47;;;;;;;80.45;31.98;;;7.30;99.90;;;;;;5082745;28;20175;-85
2022/11/13 01:11:16;;;;;;;79.25;30.67;;;7.30;99.90;;;;;;5086599;28;20183;-87
2022/11/13 01:13:43;;;;;;;77.90;26.95;;;7.30;99.90;;;;;;5082476;28;20621;-88
2022/11/13 01:16:11;;;;;;;81.43;31.77;;;7.20;99.90;;;;;;5083824;28;20164;-88
2022/11/13 01:18:37;;;;;;;80.65;29.65;;;7.30;99.90;;;;;;5079781;28;20212;-87
2022/11/13 01:21:12;;;;;;;80.68;32.75;;;7.20;99.90;;;;;;5079315;28;20195;-87
2022/11/13 01:23:38;;;;;;;78.30;29.60;;;7.20;99.90;;;;;;5078828;28;20156;-87
2022/11/13 01:26:23;;;;;;;79.35;29.30;;;7.20;99.90;;;;;;5078979;28;20536;-87
2022/11/13 01:28:49;;;;;;;79.50;30.25;;;7.10;99.90;;;;;;5078077;28;20187;-87
2022/11/13 01:31:18;;;;;;;79.27;30.60;;;7.00;99.90;;;;;;5082134;28;20237;-85
2022/11/13 01:33:45;;;;;;;77.22;26.73;;;7.10;99.90;;;;;;5083708;28;20413;-85
2022/11/13 01:36:14;;;;;;;77.13;26.63;;;7.00;99.90;;;;;;5083457;28;20187;-86
2022/11/13 01:38:40;;;;;;;80.82;25.75;;;7.00;99.90;;;;;;5083232;28;20179;-85
2022/11/13 01:41:14;;;;;;;78.53;25.97;;;7.00;99.90;;;;;;5081858;28;20195;-85
2022/11/13 01:43:40;;;;;;;84.45;29.35;;;7.00;99.90;;;;;;5083408;28;20155;-85
2022/11/13 01:46:20;;;;;;;81.73;25.30;;;6.90;99.90;;;;;;5083135;28;20175;-85
2022/11/13 01:49:08;;;;;;;76.78;25.15;;;6.90;99.90;;;;;;5080256;28;20148;-84
2022/11/13 01:51:50;;;;;;;76.75;24.58;;;6.80;99.90;;;;;;5080179;28;20290;-84
2022/11/13 01:54:21;;;;;;;79.25;24.67;;;6.80;99.90;;;;;;5083709;28;20663;-85
2022/11/13 01:56:47;;;;;;;81.85;25.27;;;6.80;99.90;;;;;;5084031;28;20194;-85
2022/11/13 01:59:23;;;;;;;79.10;27.48;;;6.80;99.90;;;;;;5084138;28;20184;-85
2022/11/13 02:01:48;;;;;;;76.95;25.92;;;6.70;99.90;;;;;;5082492;28;20648;-85
2022/11/13 02:04:14;;;;;;;78.20;24.97;;;6.70;99.90;;;;;;5082624;28;20175;-85
2022/11/13 02:06:51;;;;;;;79.80;25.40;;;6.70;99.90;;;;;;5082751;28;20555;-85
2022/11/13 02:09:20;;;;;;;79.03;25.15;;;6.70;99.90;;;;;;5083875;28;20211;-85
2022/11/13 02:11:46;;;;;;;77.10;23.85;;;6.70;99.90;;;;;;5083602;28;20556;-85
2022/11/13 02:14:13;;;;;;;80.35;24.80;;;6.70;99.90;;;;;;5083964;28;20185;-85
2022/11/13 02:16:41;;;;;;;75.28;23.92;;;6.60;99.90;;;;;;5081507;28;20167;-85
2022/11/13 02:19:15;;;;;;;79.00;25.88;;;6.60;99.90;;;;;;5081747;28;20184;-86
2022/11/13 02:21:50;;;;;;;77.30;25.70;;;6.60;99.90;;;;;;5081977;28;20156;-86
2022/11/13 02:24:29;;;;;;;79.65;24.48;;;6.60;99.90;;;;;;5081002;28;20601;-86
2022/11/13 02:26:58;;;;;;;77.05;24.52;;;6.50;99.90;;;;;;5081385;28;20152;-86
2022/11/13 02:29:24;;;;;;;78.72;24.88;;;6.50;99.90;;;;;;5079903;28;20754;-86
2022/11/13 02:31:50;;;;;;;79.00;27.00;;;6.50;99.90;;;;;;5079561;28;20218;-86
2022/11/13 02:34:15;;;;;;;75.90;23.90;;;6.50;99.90;;;;;;5079487;28;20240;-86
2022/11/13 02:36:41;;;;;;;78.97;25.97;;;6.50;99.90;;;;;;5081195;28;20171;-86
2022/11/13 02:39:10;;;;;;;78.60;25.37;;;6.50;99.90;;;;;;5079373;28;20235;-86
2022/11/13 02:41:37;;;;;;;77.47;24.80;;;6.50;99.90;;;;;;5082202;28;20172;-87
2022/11/13 02:44:04;;;;;;;75.88;21.63;;;6.40;99.90;;;;;;5082391;28;20672;-87
2022/11/13 02:46:30;;;;;;;77.25;23.30;;;6.30;99.90;;;;;;5080933;28;20171;-86
2022/11/13 02:48:55;;;;;;;77.43;23.87;;;6.30;99.90;;;;;;5079388;28;20214;-87
2022/11/13 02:51:21;;;;;;;74.97;23.17;;;6.30;99.90;;;;;;5080538;28;20434;-87
2022/11/13 02:53:47;;;;;;;79.70;23.63;;;6.30;99.90;;;;;;5079743;28;20222;-86
2022/11/13 02:56:13;;;;;;;74.13;22.23;;;6.30;99.90;;;;;;5080115;28;20171;-87
2022/11/13 02:58:39;;;;;;;77.87;23.57;;;6.20;99.90;;;;;;5080163;28;20402;-87
2022/11/13 03:01:05;;;;;;;79.97;26.17;;;6.20;99.90;;;;;;5079343;28;20184;-86
2022/11/13 03:03:30;;;;;;;76.55;22.38;;;6.20;99.90;;;;;;5080027;28;20410;-86
2022/11/13 03:05:56;;;;;;;76.53;24.90;;;6.20;99.90;;;;;;5079317;28;20175;-86
2022/11/13 03:08:24;;;;;;;77.70;24.40;;;6.10;99.90;;;;;;5080234;28;20164;-86
2022/11/13 03:10:53;;;;;;;76.32;23.23;;;6.10;99.90;;;;;;5078250;28;20184;-86
2022/11/13 03:13:19;;;;;;;75.20;22.45;;;6.00;99.90;;;;;;5078537;28;20164;-86
2022/11/13 03:15:45;;;;;;;76.30;22.67;;;5.90;99.90;;;;;;5079935;28;20171;-86
2022/11/13 03:18:11;;;;;;;77.37;24.20;;;5.90;99.90;;;;;;5079903;28;20402;-86
2022/11/13 03:20:39;;;;;;;77.03;24.38;;;5.90;99.90;;;;;;5083151;28;20197;-86
2022/11/13 03:23:05;;;;;;;74.70;21.80;;;5.90;99.90;;;;;;5081912;28;20168;-86
2022/11/13 03:25:32;;;;;;;76.07;23.30;;;5.90;99.90;;;;;;5084459;28;20172;-85
2022/11/13 03:28:01;;;;;;;75.80;19.98;;;5.90;99.90;;;;;;5085028;28;20497;-86
2022/11/13 03:30:27;;;;;;;75.15;22.70;;;5.80;99.90;;;;;;5084499;28;20191;-86
2022/11/13 03:32:56;;;;;;;75.90;21.43;;;5.80;99.90;;;;;;5084010;28;20195;-86
2022/11/13 03:35:23;;;;;;;77.13;24.83;;;5.80;99.90;;;;;;5083750;28;20437;-86
2022/11/13 03:37:49;;;;;;;75.95;23.75;;;5.80;99.90;;;;;;5083149;28;20187;-86
2022/11/13 03:40:15;;;;;;;75.78;25.25;;;5.80;99.90;;;;;;5084806;28;20203;-86
2022/11/13 03:42:41;;;;;;;74.75;22.02;;;5.80;99.90;;;;;;5084075;28;20164;-86
2022/11/13 03:45:07;;;;;;;75.87;24.17;;;5.90;99.90;;;;;;5083525;28;20557;-86
2022/11/13 03:47:33;;;;;;;75.57;23.90;;;5.90;99.90;;;;;;5085048;28;20171;-86
2022/11/13 03:49:58;;;;;;;75.77;22.50;;;6.00;99.90;;;;;;5083971;28;20441;-86
2022/11/13 03:52:24;;;;;;;75.27;22.73;;;6.00;99.90;;;;;;5077967;28;20183;-85
2022/11/13 03:54:53;;;;;;;75.00;21.27;;;6.00;99.90;;;;;;5076605;28;20163;-85
2022/11/13 03:57:19;;;;;;;75.90;22.55;;;6.00;99.90;;;;;;5078107;28;20394;-85
2022/11/13 03:59:44;;;;;;;77.70;23.73;;;6.10;99.90;;;;;;5076317;28;20187;-85
2022/11/13 04:02:10;;;;;;;74.40;20.60;;;6.10;99.90;;;;;;5076414;28;20168;-85
2022/11/13 04:04:36;;;;;;;74.40;21.67;;;6.10;99.90;;;;;;5075445;28;20175;-85
2022/11/13 04:07:02;;;;;;;77.03;24.27;;;6.10;99.90;;;;;;5076928;28;20221;-85
2022/11/13 04:09:28;;;;;;;75.20;22.73;;;6.10;99.90;;;;;;5076307;28;20275;-85
2022/11/13 04:11:53;;;;;;;76.53;22.07;;;6.10;99.90;;;;;;5077769;28;20592;-85
2022/11/13 04:14:19;;;;;;;83.93;25.57;;;6.10;99.90;;;;;;5085878;28;20182;-86
2022/11/13 04:16:45;;;;;;;78.80;26.83;;;6.10;99.90;;;;;;5081182;28;20198;-85
2022/11/13 04:19:10;;;;;;;76.90;21.60;;;6.20;99.90;;;;;;5077030;28;20191;-85
2022/11/13 04:21:36;;;;;;;73.80;19.70;;;6.30;99.90;;;;;;5075044;28;20172;-86
2022/11/13 04:24:02;;;;;;;76.73;19.43;;;6.40;99.90;;;;;;5076702;28;20231;-85
2022/11/13 04:26:27;;;;;;;78.90;18.53;;;6.50;99.90;;;;;;5075250;28;20172;-85
2022/11/13 04:28:53;;;;;;;72.83;18.90;;;6.60;99.90;;;;;;5076423;28;20178;-85
2022/11/13 04:31:19;;;;;;;74.47;17.40;;;6.60;99.90;;;;;;5074235;28;20231;-85
2022/11/13 04:33:44;;;;;;;74.27;17.43;;;6.60;99.90;;;;;;5075818;28;20175;-85
2022/11/13 04:36:10;;;;;;;76.50;19.20;;;6.70;99.90;;;;;;5074117;28;20177;-85
2022/11/13 04:38:36;;;;;;;73.77;18.07;;;6.60;99.90;;;;;;5073919;28;20281;-85
2022/11/13 04:43:45;;;;;;;75.30;19.23;;;6.70;99.90;;;;;;5075560;28;20171;-85
2022/11/13 04:46:11;;;;;;;75.30;17.87;;;6.70;99.90;;;;;;5074081;28;20552;-85
2022/11/13 04:48:36;;;;;;;72.20;18.87;;;6.70;99.90;;;;;;5074101;28;20518;-85
2022/11/13 04:51:02;;;;;;;74.80;19.57;;;6.80;99.90;;;;;;5075545;28;20190;-85
2022/11/13 04:53:28;;;;;;;74.77;22.00;;;6.80;99.90;;;;;;5074121;28;20233;-85
2022/11/13 04:55:54;;;;;;;75.67;20.60;;;6.70;99.90;;;;;;5075233;28;20829;-85
2022/11/13 04:58:19;;;;;;;78.83;24.27;;;6.70;99.90;;;;;;5076164;28;20652;-86
2022/11/13 05:00:45;;;;;;;77.50;24.80;;;6.70;99.90;;;;;;5082224;28;20186;-87
2022/11/13 05:03:11;;;;;;;75.17;22.57;;;6.60;99.90;;;;;;5081840;28;20175;-87
2022/11/13 05:05:36;;;;;;;75.53;22.80;;;6.60;99.90;;;;;;5082437;28;20690;-87
2022/11/13 05:08:02;;;;;;;74.57;20.07;;;6.60;99.90;;;;;;5082068;28;20213;-86
2022/11/13 05:10:28;;;;;;;75.00;21.97;;;6.60;99.90;;;;;;5077000;28;20588;-85
2022/11/13 05:12:55;;;;;;;75.30;19.50;;;6.70;99.90;;;;;;5073468;28;20568;-85
2022/11/13 05:15:21;;;;;;;76.05;20.25;;;6.70;99.90;;;;;;5074001;28;20518;-85
2022/11/13 05:17:50;;;;;;;78.00;22.05;;;6.70;99.90;;;;;;5073655;28;20164;-85
2022/11/13 05:20:16;;;;;;;76.90;20.75;;;6.70;99.90;;;;;;5073968;28;20194;-85
2022/11/13 05:22:42;;;;;;;78.60;23.27;;;6.80;99.90;;;;;;5073868;28;20167;-85
2022/11/13 05:25:07;;;;;;;76.07;21.77;;;6.80;99.90;;;;;;5073815;28;20410;-85
2022/11/13 05:27:33;;;;;;;75.30;24.90;;;6.80;99.90;;;;;;5075494;28;20685;-86
2022/11/13 05:29:59;;;;;;;76.57;23.80;;;6.80;99.90;;;;;;5073910;28;20969;-85
2022/11/13 05:32:25;;;;;;;77.47;25.10;;;6.80;99.90;;;;;;5074043;28;20264;-85
2022/11/13 05:34:50;;;;;;;75.07;21.73;;;6.70;99.90;;;;;;5075185;28;20160;-86
2022/11/13 05:37:16;;;;;;;75.23;20.03;;;6.70;99.90;;;;;;5075320;28;20257;-86
2022/11/13 05:39:42;;;;;;;78.00;23.87;;;6.70;99.90;;;;;;5161652;22;20233;-86
2022/11/13 05:42:08;;;;;;;75.67;22.33;;;6.70;99.90;;;;;;5083095;28;20558;-86
2022/11/13 05:44:34;;;;;;;75.27;24.07;;;6.60;99.90;;;;;;5085055;28;20410;-86
2022/11/13 05:46:59;;;;;;;76.17;21.57;;;6.60;99.90;;;;;;5080816;28;20414;-86
2022/11/13 05:49:25;;;;;;;79.70;23.70;;;6.60;99.90;;;;;;5082921;28;20552;-86
2022/11/13 05:51:54;;;;;;;75.07;23.20;;;6.60;99.90;;;;;;5081880;28;20242;-86
2022/11/13 05:54:19;;;;;;;76.20;22.98;;;6.60;99.90;;;;;;5082976;28;20164;-86
2022/11/13 05:56:45;;;;;;;75.43;23.57;;;6.60;99.90;;;;;;5086263;28;20179;-86
2022/11/13 05:59:11;;;;;;;74.97;23.37;;;6.60;99.90;;;;;;5087020;28;20180;-86
2022/11/13 06:01:38;;;;;;;74.07;27.57;;;6.50;99.90;;;;;;5086057;28;20178;-86
2022/11/13 06:04:05;;;;;;;74.47;23.85;;;6.50;99.90;;;;;;5086665;28;20170;-86
2022/11/13 06:06:31;;;;;;;76.82;23.80;;;6.50;99.90;;;;;;5086594;28;20249;-86
2022/11/13 06:09:00;;;;;;;73.60;20.63;;;6.50;99.90;;;;;;5085980;28;20159;-86
2022/11/13 06:11:28;;;;;;;73.70;20.27;;;6.40;99.90;;;;;;5085079;28;20569;-86
2022/11/13 06:13:54;;;;;;;74.43;22.98;;;6.40;99.90;;;;;;5086747;28;20156;-86
2022/11/13 06:16:23;;;;;;;74.45;22.50;;;6.30;99.90;;;;;;5088119;28;20242;-86
2022/11/13 06:18:49;;;;;;;76.53;23.15;;;6.20;99.90;;;;;;5085655;28;20155;-86
2022/11/13 06:21:20;;;;;;;73.70;22.35;;;6.20;99.90;;;;;;5085573;28;20191;-86
2022/11/13 06:23:47;;;;;;;73.45;21.10;;;6.20;99.90;;;;;;5086569;28;20186;-86
2022/11/13 06:26:22;;;;;;;75.80;23.35;;;6.10;99.90;;;;;;5085984;28;20174;-86
2022/11/13 06:28:48;;;;;;;74.97;22.58;;;6.10;99.90;;;;;;5086231;28;20152;-86
2022/11/13 06:31:16;;;;;;;75.40;21.10;;;6.00;99.90;;;;;;5085260;28;20215;-86
2022/11/13 06:33:42;;;;;;;76.05;24.15;;;5.90;99.90;;;;;;5085826;28;20233;-86
2022/11/13 06:36:20;;;;;;;76.97;22.75;;;5.90;99.90;;;;;;5085717;28;20219;-86
2022/11/13 06:38:49;;;;;;;73.85;21.05;;;5.90;99.90;;;;;;5085559;28;20672;-86
2022/11/13 06:41:17;;;;;;;75.30;21.48;;;5.90;99.90;;;;;;5084978;28;20160;-86
2022/11/13 06:43:43;;;;;;;76.47;21.95;;;5.90;99.90;;;;;;5084997;28;20165;-86
2022/11/13 06:46:18;;;;;;;77.15;23.42;;;5.90;99.90;;;;;;5083181;28;20176;-86
2022/11/13 06:48:45;;;;;;;74.15;20.95;;;6.00;99.90;;;;;;5084300;28;20152;-86
2022/11/13 06:51:25;;;;;;;75.32;21.27;;;6.00;99.90;;;;;;5086349;28;20608;-86
2022/11/13 06:53:51;;;;;;;76.82;26.25;;;6.00;99.90;;;;;;5087560;28;20580;-86
2022/11/13 06:56:17;;;;;;;73.13;18.37;;;6.00;99.90;;;;;;5087250;28;20160;-86
2022/11/13 06:58:43;;;;;;;75.68;23.00;;;6.00;99.90;;;;;;5085369;28;20406;-86
2022/11/13 07:01:12;;;;;;;76.10;20.17;;;6.00;99.90;;;;;;5086345;28;20176;-86
2022/11/13 07:03:38;;;;;;;75.47;22.90;;;6.00;99.90;;;;;;5087071;28;20899;-86
2022/11/13 07:06:06;;;;;;;74.60;19.85;;;6.00;99.90;;;;;;5085371;28;20173;-86
2022/11/13 07:08:32;;;;;;;78.15;24.15;;;6.00;99.90;;;;;;5089719;28;20189;-86
2022/11/13 07:10:58;;;;;;;74.57;21.92;;;5.90;99.90;;;;;;5092169;28;20568;-85
2022/11/13 07:13:25;;;;;;;76.85;22.60;;;5.90;99.90;;;;;;5087062;28;20168;-86
2022/11/13 07:15:51;;;;;;;75.95;21.42;;;5.80;99.90;;;;;;5091318;28;20187;-86
2022/11/13 07:18:17;;;;;;;76.47;22.52;;;5.70;99.90;;;;;;5088157;28;20164;-85
2022/11/13 07:20:43;;;;;;;75.28;19.48;;;5.70;99.90;;;;;;5096833;28;20168;-84
2022/11/13 07:23:09;;;;;;;74.70;21.35;;;5.70;99.90;;;;;;5101018;28;20156;-85
2022/11/13 07:25:36;;;;;;;75.70;20.88;;;5.80;99.90;;;;;;5100889;28;20636;-83
2022/11/13 07:28:02;;;;;;;77.38;22.23;;;5.90;99.90;;;;;;5087069;28;20198;-86
2022/11/13 07:30:28;;;;;;;77.00;23.48;;;5.90;99.90;;;;;;5086063;28;20175;-87
2022/11/13 07:33:01;;;;;;;73.90;21.50;;;5.90;99.90;;;;;;5086048;28;20233;-86
2022/11/13 07:35:27;;;;;;;76.80;22.05;;;5.90;99.90;;;;;;5085934;28;20386;-86
2022/11/13 07:37:56;;;;;;;74.53;20.50;;;5.90;99.90;;;;;;5085781;28;20178;-86
2022/11/13 07:40:22;;;;;;;75.72;22.95;;;5.90;99.90;;;;;;5085566;28;20218;-86
2022/11/13 07:42:55;;;;;;;75.80;19.77;;;5.90;99.90;;;;;;5086254;28;20529;-86
2022/11/13 07:45:20;;;;;;;78.57;21.23;;;5.90;99.90;;;;;;5087960;28;20398;-86
2022/11/13 07:47:46;;;;;;;75.43;23.87;;;6.00;99.90;;;;;;5086021;28;20529;-86
2022/11/13 07:50:12;;;;;;;77.80;22.23;;;6.00;99.90;;;;;;5083779;28;20206;-86
2022/11/13 07:52:38;;;;;;;74.90;24.67;;;6.10;99.90;;;;;;5084222;28;20259;-86
2022/11/13 07:55:04;;;;;;;73.27;20.53;;;6.10;99.90;;;;;;5087729;28;20190;-86
2022/11/13 07:57:30;;;;;;;75.35;20.98;;;6.20;99.90;;;;;;5086237;28;20402;-86
2022/11/13 07:59:55;;;;;;;76.83;23.83;;;6.20;99.90;;;;;;5085653;28;20571;-86
2022/11/13 08:02:21;;;;;;;74.37;20.57;;;6.30;99.90;;;;;;5086912;28;20176;-86
2022/11/13 08:04:47;;;;;;;73.90;21.10;;;6.30;99.90;;;;;;5086914;28;20175;-86
2022/11/13 08:07:12;;;;;;;77.37;23.53;;;6.40;99.90;;;;;;5086974;28;20198;-86
2022/11/13 08:09:38;;;;;;;79.10;25.43;;;6.40;99.90;;;;;;5085128;28;20187;-86
2022/11/13 08:12:04;;;;;;;77.47;23.50;;;6.40;99.90;;;;;;5085814;28;20192;-86
2022/11/13 08:14:29;;;;;;;78.07;24.47;;;6.50;99.90;;;;;;5082875;28;20172;-86
2022/11/13 08:16:55;;;;;;;77.93;23.80;;;6.50;99.90;;;;;;5085211;28;20402;-86
2022/11/13 08:19:21;;;;;;;75.47;24.23;;;6.60;99.90;;;;;;5086240;28;20245;-86
2022/11/13 08:21:46;;;;;;;76.50;24.60;;;6.60;99.90;;;;;;5085004;28;20179;-86
2022/11/13 08:24:12;;;;;;;74.50;21.27;;;6.70;99.90;;;;;;5083571;28;20193;-86
2022/11/13 08:26:38;;;;;;;76.67;23.23;;;6.70;99.90;;;;;;5084599;28;20200;-86
2022/11/13 08:29:04;;;;;;;78.37;22.80;;;6.70;99.90;;;;;;5084616;28;20199;-86
2022/11/13 08:31:30;;;;;;;77.37;24.30;;;6.80;99.90;;;;;;5083998;28;20503;-86
2022/11/13 08:33:56;;;;;;;78.22;22.10;;;6.80;99.90;;;;;;5084635;28;20171;-86
2022/11/13 08:36:22;;;;;;;75.33;23.03;;;6.90;99.90;;;;;;5085569;28;20164;-86
2022/11/13 08:38:48;;;;;;;75.83;22.83;;;7.00;99.90;;;;;;5084784;28;20486;-86
2022/11/13 08:41:13;;;;;;;76.13;21.73;;;7.00;99.90;;;;;;5085240;28;20167;-86
2022/11/13 08:43:39;;;;;;;76.30;23.80;;;7.00;99.90;;;;;;5085525;28;20908;-86
2022/11/13 08:46:05;;;;;;;77.17;22.53;;;7.10;99.90;;;;;;5086151;28;20175;-86
2022/11/13 08:48:31;;;;;;;76.77;22.87;;;7.20;99.90;;;;;;5086597;28;20406;-86
2022/11/13 08:50:57;;;;;;;79.70;27.57;;;7.30;99.90;;;;;;5085604;28;20425;-86
2022/11/13 08:53:24;;;;;;;76.27;25.60;;;7.30;99.90;;;;;;5086946;28;20163;-86
2022/11/13 08:55:49;;;;;;;77.50;26.77;;;7.40;99.90;;;;;;5084217;28;20168;-86
2022/11/13 08:58:16;;;;;;;80.93;25.70;;;7.40;99.90;;;;;;5083877;28;20178;-86
2022/11/13 09:00:42;;;;;;;80.78;29.10;;;7.40;99.90;;;;;;5083643;28;20184;-86
2022/11/13 09:03:10;;;;;;;80.22;27.55;;;7.50;99.90;;;;;;5084454;28;20163;-86
2022/11/13 09:05:36;;;;;;;81.35;27.08;;;7.50;99.90;;;;;;5082743;28;20160;-86
2022/11/13 09:08:02;;;;;;;77.17;23.87;;;7.50;99.90;;;;;;5083532;28;20243;-86
2022/11/13 09:10:28;;;;;;;79.40;27.27;;;7.60;99.90;;;;;;5082666;28;20191;-86
2022/11/13 09:13:00;;;;;;;79.80;28.38;;;7.60;99.90;;;;;;5082625;28;20192;-86
2022/11/13 09:15:27;;;;;;;78.55;22.35;;;7.70;99.90;;;;;;5083639;28;20156;-86
2022/11/13 09:18:00;;;;;;;82.22;25.45;;;7.80;99.90;;;;;;5081925;28;20188;-86
2022/11/13 09:20:27;;;;;;;76.35;25.17;;;7.90;99.90;;;;;;5083411;28;20190;-86
2022/11/13 09:23:04;;;;;;;75.45;24.85;;;8.00;99.90;;;;;;5082953;28;20160;-86
2022/11/13 09:25:33;;;;;;;76.22;25.27;;;8.10;99.90;;;;;;5084210;28;20163;-86
2022/11/13 09:28:00;;;;;;;74.72;25.90;;;8.20;99.90;;;;;;5083580;28;20160;-86
2022/11/13 09:30:26;;;;;;;73.15;22.25;;;8.30;99.90;;;;;;5084269;28;20189;-86
2022/11/13 09:32:57;;;;;;;76.93;24.20;;;8.50;99.90;;;;;;5082979;28;20261;-86
2022/11/13 09:35:33;;;;;;;72.68;17.77;;;8.70;99.90;;;;;;5082377;28;20171;-86
2022/11/13 09:38:13;;;;;;;70.97;17.65;;;8.90;99.90;;;;;;5082725;28;20213;-86
2022/11/13 09:41:03;;;;;;;71.50;12.55;;;9.00;99.90;;;;;;5081899;28;20183;-86
2022/11/13 09:43:49;;;;;;;69.15;9.48;;;9.20;99.90;;;;;;5082512;28;20181;-86
2022/11/13 09:46:39;;;;;;;68.43;8.32;;;9.40;99.90;;;;;;5082094;28;20152;-86
2022/11/13 09:49:15;;;;;;;67.57;6.32;;;9.50;99.90;;;;;;5082995;28;20251;-86
2022/11/13 09:51:55;;;;;;;68.20;6.60;;;9.60;99.90;;;;;;5082673;28;20187;-86
2022/11/13 09:54:21;;;;;;;69.28;7.57;;;9.80;99.90;;;;;;5083222;28;20147;-86
2022/11/13 09:56:55;;;;;;;66.90;6.40;;;9.90;99.90;;;;;;5083166;28;20159;-86
2022/11/13 09:59:24;;;;;;;68.30;6.38;;;10.10;99.90;;;;;;5081379;28;20198;-86
2022/11/13 10:02:13;;;;;;;69.25;6.57;;;10.20;99.90;;;;;;5082130;28;20251;-85
2022/11/13 10:04:49;;;;;;;67.75;7.30;;;10.30;99.90;;;;;;5083293;28;20174;-86
2022/11/13 10:07:35;;;;;;;67.05;6.28;;;10.50;99.90;;;;;;5089354;28;20151;-86
2022/11/13 10:10:18;;;;;;;68.82;7.25;;;10.60;99.90;;;;;;5081431;28;20192;-86
2022/11/13 10:12:46;;;;;;;67.95;6.72;;;10.70;92.60;;;;;;5081314;28;20186;-86
2022/11/13 10:15:15;;;;;;;67.90;7.00;;;10.80;82.50;;;;;;5081471;28;20156;-86
2022/11/13 10:17:55;;;;;;;67.97;6.38;;;10.80;58.50;;;;;;5081502;28;20160;-86
2022/11/13 10:20:23;;;;;;;67.82;5.90;;;11.00;62.30;;;;;;5081766;28;20190;-86
2022/11/13 10:23:07;;;;;;;67.85;6.63;;;11.00;65.30;;;;;;5083883;28;20168;-86
2022/11/13 10:25:35;;;;;;;68.63;6.40;;;11.10;59.10;;;;;;5085584;28;20499;-86
2022/11/13 10:28:11;;;;;;;66.55;5.55;;;11.30;51.50;;;;;;5085910;28;20182;-86
2022/11/13 10:30:39;;;;;;;68.68;6.38;;;11.40;45.40;;;;;;5088068;28;20592;-86
2022/11/13 10:33:07;;;;;;;66.90;5.35;;;11.50;41.30;;;;;;5088243;28;20192;-86
2022/11/13 10:35:44;;;;;;;67.03;6.07;;;11.60;41.00;;;;;;5088546;28;20175;-86
2022/11/13 10:38:38;;;;;;;71.10;5.53;;;11.70;33.10;;;;;;5087082;28;20187;-86
2022/11/13 10:41:12;;;;;;;66.53;5.20;;;11.90;25.30;;;;;;5086681;28;20187;-86
2022/11/13 10:43:55;;;;;;;67.10;5.20;;;12.00;14.50;;;;;;5084754;28;20152;-86
2022/11/13 10:46:28;;;;;;;66.18;5.30;;;12.20;1.90;;;;;;5086492;28;20188;-86
2022/11/13 10:48:57;;;;;;;66.97;5.50;;;12.20;1.00;;;;;;5086358;28;20231;-86
2022/11/13 10:51:26;;;;;;;66.65;6.65;;;12.30;1.00;;;;;;5085907;28;20184;-86
2022/11/13 10:53:53;;;;;;;70.43;8.02;;;12.30;1.00;;;;;;5085813;28;20190;-87
2022/11/13 10:56:29;;;;;;;67.80;7.80;;;12.40;1.00;;;;;;5084926;28;20156;-87
2022/11/13 10:59:17;;;;;;;66.85;7.30;;;12.60;1.00;;;;;;5085798;28;20223;-86
2022/11/13 11:01:46;;;;;;;67.15;6.75;;;12.60;1.00;;;;;;5085697;28;20163;-86
2022/11/13 11:04:20;;;;;;;68.55;7.65;;;12.70;1.00;;;;;;5085802;28;20160;-86
2022/11/13 11:06:46;;;;;;;67.07;7.38;;;12.80;1.00;;;;;;5085609;28;20162;-87
2022/11/13 11:09:29;;;;;;;67.20;7.55;;;12.80;1.00;;;;;;5090191;28;20209;-87
2022/11/13 11:12:22;;;;;;;68.32;8.63;;;12.80;1.00;;;;;;5086614;28;20190;-87
2022/11/13 11:14:59;;;;;;;68.95;8.20;;;12.90;1.00;;;;;;5086117;28;20609;-87
2022/11/13 11:17:44;;;;;;;67.93;8.75;;;12.90;1.00;;;;;;5086238;28;20163;-87
2022/11/13 11:20:30;;;;;;;69.07;9.45;;;12.90;1.00;;;;;;5084466;28;20182;-87
2022/11/13 11:23:31;;;;;;;75.13;8.80;;;13.00;1.00;;;;;;5086138;28;20179;-87
2022/11/13 11:26:01;;;;;;;71.57;7.90;;;13.10;1.00;;;;;;5085058;28;20223;-87
2022/11/13 11:28:38;;;;;;;68.63;10.00;;;13.20;1.00;;;;;;5085445;28;20532;-87
2022/11/13 11:31:13;;;;;;;68.50;9.20;;;13.20;1.00;;;;;;5085456;28;20444;-87
2022/11/13 11:33:55;;;;;;;68.72;7.93;;;13.30;1.00;;;;;;5085336;28;20429;-87
2022/11/13 11:36:43;;;;;;;68.67;8.10;;;13.30;1.00;;;;;;5087448;28;20185;-87
2022/11/13 11:39:21;;;;;;;70.55;9.25;;;13.40;1.00;;;;;;5068460;28;20525;-87
2022/11/13 11:42:17;;;;;;;67.78;7.40;;;13.50;1.00;;;;;;5088622;28;20158;-88
2022/11/13 11:44:51;;;;;;;69.03;9.40;;;13.60;1.00;;;;;;5087454;28;20321;-87
2022/11/13 11:47:20;;;;;;;70.10;10.68;;;13.60;1.00;;;;;;5088130;28;20392;-87
2022/11/13 11:49:46;;;;;;;69.20;11.47;;;13.70;1.00;;;;;;5087768;28;20187;-87
2022/11/13 11:52:30;;;;;;;76.93;10.43;;;13.60;1.00;;;;;;5087576;28;20446;-87
2022/11/13 11:54:58;;;;;;;72.53;13.77;;;13.60;1.00;;;;;;5085556;28;20156;-87
2022/11/13 11:57:54;;;;;;;69.17;11.33;;;13.70;1.00;;;;;;5086706;28;20399;-87
2022/11/13 12:00:20;;;;;;;70.97;12.20;;;13.60;1.00;;;;;;5086834;28;20418;-87
2022/11/13 12:02:46;;;;;;;70.43;10.20;;;13.50;1.00;;;;;;5085717;28;20434;-86
2022/11/13 12:05:39;;;;;;;69.90;10.57;;;13.50;1.00;;;;;;5087192;28;20410;-87
2022/11/13 12:08:17;;;;;;;71.10;10.67;;;13.50;1.00;;;;;;5085017;28;20178;-87
2022/11/13 12:11:16;;;;;;;70.43;14.13;;;13.50;1.00;;;;;;5086655;28;20425;-87
2022/11/13 12:13:42;;;;;;;69.90;11.77;;;13.50;1.00;;;;;;5086546;28;20906;-87
2022/11/13 12:16:55;;;;;;;69.37;11.43;;;13.50;1.00;;;;;;5087202;28;20390;-87
2022/11/13 12:19:48;;;;;;;69.60;11.60;;;13.50;1.00;;;;;;5072906;28;20255;-87
2022/11/13 12:22:48;;;;;;;68.80;10.43;;;13.50;1.00;;;;;;5085039;28;20405;-87
2022/11/13 12:25:34;;;;;;;72.73;11.70;;;13.50;1.00;;;;;;5087101;28;20413;-87
2022/11/13 12:28:25;;;;;;;69.47;10.40;;;13.50;1.00;;;;;;5085383;28;20422;-87
2022/11/13 12:31:08;;;;;;;69.78;11.80;;;13.50;1.00;;;;;;5085879;28;20426;-87
2022/11/13 12:33:40;;;;;;;71.63;12.53;;;13.50;1.00;;;;;;5087038;28;20609;-87
2022/11/13 12:36:11;;;;;;;69.80;10.87;;;13.50;1.00;;;;;;5086578;28;20405;-87
2022/11/13 12:39:14;;;;;;;69.37;11.53;;;13.50;1.00;;;;;;5085652;28;20430;-87
2022/11/13 12:42:09;;;;;;;69.87;11.60;;;13.50;1.00;;;;;;5085496;28;20488;-87
2022/11/13 12:44:53;;;;;;;70.60;14.13;;;13.50;1.00;;;;;;5083487;28;20413;-87
2022/11/13 12:47:19;;;;;;;72.00;13.77;;;13.40;1.00;;;;;;5086744;28;20386;-87
2022/11/13 12:49:44;;;;;;;70.30;13.57;;;13.40;1.00;;;;;;5086540;28;20488;-87
2022/11/13 12:52:23;;;;;;;72.97;14.43;;;13.40;1.00;;;;;;5085556;28;20251;-87
2022/11/13 12:54:51;;;;;;;69.63;12.10;;;13.50;1.00;;;;;;5086000;28;20237;-87